sensor_id;sensor_type;location;lat;lon;timestamp;temperature;humidity
21495;DHT22;10909;53.590;10.054;2022-12-07T00:01:30;6.90;78.40
21495;DHT22;10909;53.590;10.054;2022-12-07T00:03:57;7.00;78.30
21495;DHT22;10909;53.590;10.054;2022-12-07T00:06:29;7.00;78.20
21495;DHT22;10909;53.590;10.054;2022-12-07T00:08:55;7.00;78.30
21495;DHT22;10909;53.590;10.054;2022-12-07T00:11:22;7.00;78.30
21495;DHT22;10909;53.590;10.054;2022-12-07T00:13:52;7.00;78.30
21495;DHT22;10909;53.590;10.054;2022-12-07T00:16:19;7.00;78.40
21495;DHT22;10909;53.590;10.054;2022-12-07T00:18:45;7.00;78.50
21495;DHT22;10909;53.590;10.054;2022-12-07T00:21:14;7.00;78.30
21495;DHT22;10909;53.590;10.054;2022-12-07T00:23:41;7.00;78.30
21495;DHT22;10909;53.590;10.054;2022-12-07T00:26:21;7.00;78.30
21495;DHT22;10909;53.590;10.054;2022-12-07T00:28:48;7.00;78.30
21495;DHT22;10909;53.590;10.054;2022-12-07T00:31:16;7.00;78.30
21495;DHT22;10909;53.590;10.054;2022-12-07T00:33:42;7.00;78.40
21495;DHT22;10909;53.590;10.054;2022-12-07T00:36:11;7.00;78.50
21495;DHT22;10909;53.590;10.054;2022-12-07T00:38:38;7.00;78.50
21495;DHT22;10909;53.590;10.054;2022-12-07T00:41:07;7.00;78.50
21495;DHT22;10909;53.590;10.054;2022-12-07T00:43:33;7.10;78.60
21495;DHT22;10909;53.590;10.054;2022-12-07T00:45:59;7.10;78.70
21495;DHT22;10909;53.590;10.054;2022-12-07T00:48:25;7.00;78.70
21495;DHT22;10909;53.590;10.054;2022-12-07T00:50:51;7.00;78.90
21495;DHT22;10909;53.590;10.054;2022-12-07T00:53:17;7.10;78.80
21495;DHT22;10909;53.590;10.054;2022-12-07T00:55:43;7.10;78.80
21495;DHT22;10909;53.590;10.054;2022-12-07T00:58:09;7.00;78.70
21495;DHT22;10909;53.590;10.054;2022-12-07T01:00:36;7.10;78.80
21495;DHT22;10909;53.590;10.054;2022-12-07T01:03:04;7.10;78.80
21495;DHT22;10909;53.590;10.054;2022-12-07T01:05:30;7.10;78.90
21495;DHT22;10909;53.590;10.054;2022-12-07T01:07:56;7.10;79.00
21495;DHT22;10909;53.590;10.054;2022-12-07T01:10:22;7.10;78.90
21495;DHT22;10909;53.590;10.054;2022-12-07T01:12:47;7.10;79.00
21495;DHT22;10909;53.590;10.054;2022-12-07T01:15:13;7.10;79.00
21495;DHT22;10909;53.590;10.054;2022-12-07T01:17:39;7.10;78.90
21495;DHT22;10909;53.590;10.054;2022-12-07T01:20:05;7.10;78.80
21495;DHT22;10909;53.590;10.054;2022-12-07T01:22:31;7.10;79.00
21495;DHT22;10909;53.590;10.054;2022-12-07T01:24:57;7.10;78.90
21495;DHT22;10909;53.590;10.054;2022-12-07T01:27:23;7.10;78.90
21495;DHT22;10909;53.590;10.054;2022-12-07T01:29:48;7.10;78.90
21495;DHT22;10909;53.590;10.054;2022-12-07T01:32:14;7.10;78.80
21495;DHT22;10909;53.590;10.054;2022-12-07T01:34:40;7.00;78.70
21495;DHT22;10909;53.590;10.054;2022-12-07T01:37:05;7.00;78.70
21495;DHT22;10909;53.590;10.054;2022-12-07T01:39:31;7.00;78.70
21495;DHT22;10909;53.590;10.054;2022-12-07T01:41:57;7.00;79.10
21495;DHT22;10909;53.590;10.054;2022-12-07T01:44:28;7.00;78.90
21495;DHT22;10909;53.590;10.054;2022-12-07T01:47:02;6.90;78.90
21495;DHT22;10909;53.590;10.054;2022-12-07T01:49:29;6.90;78.90
21495;DHT22;10909;53.590;10.054;2022-12-07T01:52:27;7.00;79.10
21495;DHT22;10909;53.590;10.054;2022-12-07T01:54:59;7.00;79.10
21495;DHT22;10909;53.590;10.054;2022-12-07T01:57:26;6.90;78.80
21495;DHT22;10909;53.590;10.054;2022-12-07T01:59:53;6.90;78.80
21495;DHT22;10909;53.590;10.054;2022-12-07T02:02:27;6.90;79.00
21495;DHT22;10909;53.590;10.054;2022-12-07T02:04:56;6.90;78.80
21495;DHT22;10909;53.590;10.054;2022-12-07T02:07:23;6.90;78.80
21495;DHT22;10909;53.590;10.054;2022-12-07T02:09:49;6.90;78.80
21495;DHT22;10909;53.590;10.054;2022-12-07T02:12:15;6.80;78.70
21495;DHT22;10909;53.590;10.054;2022-12-07T02:14:41;6.80;78.90
21495;DHT22;10909;53.590;10.054;2022-12-07T02:17:31;6.80;78.80
21495;DHT22;10909;53.590;10.054;2022-12-07T02:30:46;6.70;79.20
21495;DHT22;10909;53.590;10.054;2022-12-07T02:33:28;6.70;79.20
21495;DHT22;10909;53.590;10.054;2022-12-07T02:36:11;6.70;79.30
21495;DHT22;10909;53.590;10.054;2022-12-07T02:38:52;6.60;79.20
21495;DHT22;10909;53.590;10.054;2022-12-07T02:41:27;6.60;79.30
21495;DHT22;10909;53.590;10.054;2022-12-07T02:43:56;6.60;79.20
21495;DHT22;10909;53.590;10.054;2022-12-07T02:46:27;6.60;79.00
21495;DHT22;10909;53.590;10.054;2022-12-07T02:48:54;6.60;79.20
21495;DHT22;10909;53.590;10.054;2022-12-07T02:51:21;6.60;79.40
21495;DHT22;10909;53.590;10.054;2022-12-07T02:53:47;6.60;79.30
21495;DHT22;10909;53.590;10.054;2022-12-07T03:08:06;6.60;78.70
21495;DHT22;10909;53.590;10.054;2022-12-07T03:10:55;6.60;78.70
21495;DHT22;10909;53.590;10.054;2022-12-07T03:21:16;6.50;78.50
21495;DHT22;10909;53.590;10.054;2022-12-07T03:23:45;6.40;78.50
21495;DHT22;10909;53.590;10.054;2022-12-07T03:26:14;6.40;78.50
21495;DHT22;10909;53.590;10.054;2022-12-07T03:28:46;6.40;78.50
21495;DHT22;10909;53.590;10.054;2022-12-07T03:31:18;6.40;78.40
21495;DHT22;10909;53.590;10.054;2022-12-07T03:37:00;6.30;78.30
21495;DHT22;10909;53.590;10.054;2022-12-07T03:39:37;6.30;78.20
21495;DHT22;10909;53.590;10.054;2022-12-07T03:42:06;6.30;78.20
21495;DHT22;10909;53.590;10.054;2022-12-07T03:44:34;6.30;78.20
21495;DHT22;10909;53.590;10.054;2022-12-07T03:47:21;6.30;78.20
21495;DHT22;10909;53.590;10.054;2022-12-07T03:49:53;6.30;78.20
21495;DHT22;10909;53.590;10.054;2022-12-07T03:55:20;6.20;78.20
21495;DHT22;10909;53.590;10.054;2022-12-07T03:57:51;6.20;78.10
21495;DHT22;10909;53.590;10.054;2022-12-07T04:00:18;6.10;78.00
21495;DHT22;10909;53.590;10.054;2022-12-07T04:02:44;6.10;78.00
21495;DHT22;10909;53.590;10.054;2022-12-07T04:05:10;6.10;78.10
21495;DHT22;10909;53.590;10.054;2022-12-07T04:07:36;6.10;78.10
21495;DHT22;10909;53.590;10.054;2022-12-07T04:10:03;6.00;78.00
21495;DHT22;10909;53.590;10.054;2022-12-07T04:12:28;6.00;78.10
21495;DHT22;10909;53.590;10.054;2022-12-07T04:14:54;6.00;78.00
21495;DHT22;10909;53.590;10.054;2022-12-07T04:17:20;6.00;78.10
21495;DHT22;10909;53.590;10.054;2022-12-07T04:19:45;6.00;78.10
21495;DHT22;10909;53.590;10.054;2022-12-07T04:22:11;6.00;78.10
21495;DHT22;10909;53.590;10.054;2022-12-07T04:24:37;6.00;78.10
21495;DHT22;10909;53.590;10.054;2022-12-07T04:27:03;5.90;78.20
21495;DHT22;10909;53.590;10.054;2022-12-07T04:29:29;5.90;78.20
21495;DHT22;10909;53.590;10.054;2022-12-07T04:31:55;5.90;78.20
21495;DHT22;10909;53.590;10.054;2022-12-07T04:34:20;5.90;78.20
21495;DHT22;10909;53.590;10.054;2022-12-07T04:36:47;5.90;78.20
21495;DHT22;10909;53.590;10.054;2022-12-07T04:39:25;5.80;78.00
21495;DHT22;10909;53.590;10.054;2022-12-07T04:41:52;5.80;78.10
21495;DHT22;10909;53.590;10.054;2022-12-07T04:44:18;5.80;78.20
21495;DHT22;10909;53.590;10.054;2022-12-07T04:46:44;5.80;78.30
21495;DHT22;10909;53.590;10.054;2022-12-07T04:49:11;5.80;79.00
21495;DHT22;10909;53.590;10.054;2022-12-07T04:51:37;5.80;78.20
21495;DHT22;10909;53.590;10.054;2022-12-07T04:54:03;5.70;78.20
21495;DHT22;10909;53.590;10.054;2022-12-07T04:56:29;5.70;78.20
21495;DHT22;10909;53.590;10.054;2022-12-07T04:58:55;5.70;78.20
21495;DHT22;10909;53.590;10.054;2022-12-07T05:01:22;5.70;78.20
21495;DHT22;10909;53.590;10.054;2022-12-07T05:03:48;5.70;78.30
21495;DHT22;10909;53.590;10.054;2022-12-07T05:06:14;5.70;78.30
21495;DHT22;10909;53.590;10.054;2022-12-07T05:08:40;5.70;78.30
21495;DHT22;10909;53.590;10.054;2022-12-07T05:11:07;5.70;78.30
21495;DHT22;10909;53.590;10.054;2022-12-07T05:13:34;5.70;78.40
21495;DHT22;10909;53.590;10.054;2022-12-07T05:16:01;5.70;78.50
21495;DHT22;10909;53.590;10.054;2022-12-07T05:18:27;5.70;78.50
21495;DHT22;10909;53.590;10.054;2022-12-07T05:20:52;5.70;78.50
21495;DHT22;10909;53.590;10.054;2022-12-07T05:23:19;5.70;78.50
21495;DHT22;10909;53.590;10.054;2022-12-07T05:25:44;5.60;78.50
21495;DHT22;10909;53.590;10.054;2022-12-07T05:28:10;5.60;78.40
21495;DHT22;10909;53.590;10.054;2022-12-07T05:30:36;5.70;78.50
21495;DHT22;10909;53.590;10.054;2022-12-07T05:33:03;5.60;79.20
21495;DHT22;10909;53.590;10.054;2022-12-07T05:35:29;5.60;78.40
21495;DHT22;10909;53.590;10.054;2022-12-07T05:37:55;5.60;78.40
21495;DHT22;10909;53.590;10.054;2022-12-07T05:40:21;5.60;78.40
21495;DHT22;10909;53.590;10.054;2022-12-07T05:42:47;5.60;78.50
21495;DHT22;10909;53.590;10.054;2022-12-07T05:45:12;5.60;78.50
21495;DHT22;10909;53.590;10.054;2022-12-07T05:47:38;5.60;78.60
21495;DHT22;10909;53.590;10.054;2022-12-07T05:50:04;5.60;78.60
21495;DHT22;10909;53.590;10.054;2022-12-07T05:52:31;5.60;78.60
21495;DHT22;10909;53.590;10.054;2022-12-07T05:54:58;5.60;78.50
21495;DHT22;10909;53.590;10.054;2022-12-07T05:57:24;5.70;78.60
21495;DHT22;10909;53.590;10.054;2022-12-07T05:59:50;5.70;78.50
21495;DHT22;10909;53.590;10.054;2022-12-07T06:02:16;5.70;78.50
21495;DHT22;10909;53.590;10.054;2022-12-07T06:04:44;5.70;78.50
21495;DHT22;10909;53.590;10.054;2022-12-07T06:07:13;5.70;78.40
21495;DHT22;10909;53.590;10.054;2022-12-07T06:09:39;5.70;78.40
21495;DHT22;10909;53.590;10.054;2022-12-07T06:12:08;5.70;78.30
21495;DHT22;10909;53.590;10.054;2022-12-07T06:14:53;5.70;78.40
21495;DHT22;10909;53.590;10.054;2022-12-07T06:17:18;5.70;78.30
21495;DHT22;10909;53.590;10.054;2022-12-07T06:19:44;5.70;78.30
21495;DHT22;10909;53.590;10.054;2022-12-07T06:22:10;5.60;78.20
21495;DHT22;10909;53.590;10.054;2022-12-07T06:24:37;5.60;78.20
21495;DHT22;10909;53.590;10.054;2022-12-07T06:27:03;5.60;78.20
21495;DHT22;10909;53.590;10.054;2022-12-07T06:29:29;5.60;78.30
21495;DHT22;10909;53.590;10.054;2022-12-07T06:31:55;5.60;78.30
21495;DHT22;10909;53.590;10.054;2022-12-07T06:34:22;5.60;78.30
21495;DHT22;10909;53.590;10.054;2022-12-07T06:36:49;5.60;79.00
21495;DHT22;10909;53.590;10.054;2022-12-07T06:39:21;5.60;78.20
21495;DHT22;10909;53.590;10.054;2022-12-07T06:41:47;5.60;78.20
21495;DHT22;10909;53.590;10.054;2022-12-07T06:44:14;5.60;78.20
21495;DHT22;10909;53.590;10.054;2022-12-07T06:46:39;5.60;78.20
21495;DHT22;10909;53.590;10.054;2022-12-07T06:49:05;5.70;78.30
21495;DHT22;10909;53.590;10.054;2022-12-07T06:51:32;5.70;78.30
21495;DHT22;10909;53.590;10.054;2022-12-07T06:53:58;5.70;78.30
21495;DHT22;10909;53.590;10.054;2022-12-07T06:56:24;5.70;78.30
21495;DHT22;10909;53.590;10.054;2022-12-07T06:58:50;5.70;78.30
21495;DHT22;10909;53.590;10.054;2022-12-07T07:01:18;5.70;78.40
21495;DHT22;10909;53.590;10.054;2022-12-07T07:03:45;5.70;78.40
21495;DHT22;10909;53.590;10.054;2022-12-07T07:06:12;5.80;78.40
21495;DHT22;10909;53.590;10.054;2022-12-07T07:08:38;5.80;79.20
21495;DHT22;10909;53.590;10.054;2022-12-07T07:11:05;5.80;78.40
21495;DHT22;10909;53.590;10.054;2022-12-07T07:13:31;5.80;78.40
21495;DHT22;10909;53.590;10.054;2022-12-07T07:15:57;5.80;78.40
21495;DHT22;10909;53.590;10.054;2022-12-07T07:18:23;5.80;78.50
21495;DHT22;10909;53.590;10.054;2022-12-07T07:20:53;5.80;78.40
21495;DHT22;10909;53.590;10.054;2022-12-07T07:23:19;5.90;78.50
21495;DHT22;10909;53.590;10.054;2022-12-07T07:25:45;5.90;78.50
21495;DHT22;10909;53.590;10.054;2022-12-07T07:28:11;5.90;78.50
21495;DHT22;10909;53.590;10.054;2022-12-07T07:30:37;5.90;78.50
21495;DHT22;10909;53.590;10.054;2022-12-07T07:33:03;5.90;78.50
21495;DHT22;10909;53.590;10.054;2022-12-07T07:35:30;5.90;78.50
21495;DHT22;10909;53.590;10.054;2022-12-07T07:37:56;5.90;78.50
21495;DHT22;10909;53.590;10.054;2022-12-07T07:40:23;5.90;78.50
21495;DHT22;10909;53.590;10.054;2022-12-07T07:42:52;5.90;78.50
21495;DHT22;10909;53.590;10.054;2022-12-07T07:45:20;5.90;78.50
21495;DHT22;10909;53.590;10.054;2022-12-07T07:47:46;5.90;78.50
21495;DHT22;10909;53.590;10.054;2022-12-07T07:50:11;5.90;78.50
21495;DHT22;10909;53.590;10.054;2022-12-07T07:52:37;6.00;78.50
21495;DHT22;10909;53.590;10.054;2022-12-07T07:55:03;6.00;78.60
21495;DHT22;10909;53.590;10.054;2022-12-07T07:57:29;6.00;78.60
21495;DHT22;10909;53.590;10.054;2022-12-07T07:59:55;6.00;78.70
21495;DHT22;10909;53.590;10.054;2022-12-07T08:02:21;6.00;78.70
21495;DHT22;10909;53.590;10.054;2022-12-07T08:04:47;6.00;78.70
21495;DHT22;10909;53.590;10.054;2022-12-07T08:07:14;6.00;78.70
21495;DHT22;10909;53.590;10.054;2022-12-07T08:09:41;6.00;78.70
21495;DHT22;10909;53.590;10.054;2022-12-07T08:12:07;6.00;78.70
21495;DHT22;10909;53.590;10.054;2022-12-07T08:14:33;6.10;78.90
21495;DHT22;10909;53.590;10.054;2022-12-07T08:17:00;6.10;78.90
21495;DHT22;10909;53.590;10.054;2022-12-07T08:19:26;6.10;78.80
21495;DHT22;10909;53.590;10.054;2022-12-07T08:21:52;6.20;78.80
21495;DHT22;10909;53.590;10.054;2022-12-07T08:24:18;6.20;78.80
21495;DHT22;10909;53.590;10.054;2022-12-07T08:26:43;6.20;78.70
21495;DHT22;10909;53.590;10.054;2022-12-07T08:29:09;6.20;78.60
21495;DHT22;10909;53.590;10.054;2022-12-07T08:31:36;6.20;78.60
21495;DHT22;10909;53.590;10.054;2022-12-07T08:34:02;6.30;78.50
21495;DHT22;10909;53.590;10.054;2022-12-07T08:36:28;6.30;78.60
21495;DHT22;10909;53.590;10.054;2022-12-07T08:38:54;6.30;78.50
21495;DHT22;10909;53.590;10.054;2022-12-07T08:41:19;6.30;78.40
21495;DHT22;10909;53.590;10.054;2022-12-07T08:43:45;6.30;78.40
21495;DHT22;10909;53.590;10.054;2022-12-07T08:48:50;6.40;78.40
21495;DHT22;10909;53.590;10.054;2022-12-07T08:51:17;6.40;78.30
21495;DHT22;10909;53.590;10.054;2022-12-07T08:53:43;6.40;78.20
21495;DHT22;10909;53.590;10.054;2022-12-07T08:56:10;6.40;78.30
21495;DHT22;10909;53.590;10.054;2022-12-07T08:58:37;6.50;78.30
21495;DHT22;10909;53.590;10.054;2022-12-07T09:01:04;6.40;78.90
21495;DHT22;10909;53.590;10.054;2022-12-07T09:03:30;6.50;78.80
21495;DHT22;10909;53.590;10.054;2022-12-07T09:05:57;6.60;78.60
21495;DHT22;10909;53.590;10.054;2022-12-07T09:08:30;6.60;78.50
21495;DHT22;10909;53.590;10.054;2022-12-07T09:10:56;6.60;78.40
21495;DHT22;10909;53.590;10.054;2022-12-07T09:13:22;6.70;78.30
21495;DHT22;10909;53.590;10.054;2022-12-07T09:15:48;6.70;78.20
21495;DHT22;10909;53.590;10.054;2022-12-07T09:18:13;6.70;78.20
21495;DHT22;10909;53.590;10.054;2022-12-07T09:20:39;6.70;78.20
21495;DHT22;10909;53.590;10.054;2022-12-07T09:23:06;6.80;78.30
21495;DHT22;10909;53.590;10.054;2022-12-07T09:25:33;6.80;78.30
21495;DHT22;10909;53.590;10.054;2022-12-07T09:27:58;6.80;78.30
21495;DHT22;10909;53.590;10.054;2022-12-07T09:30:25;6.90;78.20
21495;DHT22;10909;53.590;10.054;2022-12-07T09:32:53;6.90;78.20
21495;DHT22;10909;53.590;10.054;2022-12-07T09:35:19;6.90;78.10
21495;DHT22;10909;53.590;10.054;2022-12-07T09:37:45;6.90;78.00
21495;DHT22;10909;53.590;10.054;2022-12-07T09:40:12;7.00;78.00
21495;DHT22;10909;53.590;10.054;2022-12-07T09:42:41;7.00;78.00
21495;DHT22;10909;53.590;10.054;2022-12-07T09:45:34;7.00;78.10
21495;DHT22;10909;53.590;10.054;2022-12-07T09:48:01;7.00;78.00
21495;DHT22;10909;53.590;10.054;2022-12-07T09:50:28;7.10;78.10
21495;DHT22;10909;53.590;10.054;2022-12-07T09:53:08;7.10;77.80
21495;DHT22;10909;53.590;10.054;2022-12-07T09:55:36;7.10;77.80
21495;DHT22;10909;53.590;10.054;2022-12-07T09:58:02;7.10;77.90
21495;DHT22;10909;53.590;10.054;2022-12-07T10:00:29;7.10;77.90
21495;DHT22;10909;53.590;10.054;2022-12-07T10:03:00;7.20;77.90
21495;DHT22;10909;53.590;10.054;2022-12-07T10:05:40;7.20;77.80
21495;DHT22;10909;53.590;10.054;2022-12-07T10:08:11;7.20;77.80
21495;DHT22;10909;53.590;10.054;2022-12-07T10:10:37;7.30;77.70
21495;DHT22;10909;53.590;10.054;2022-12-07T10:13:08;7.30;77.50
21495;DHT22;10909;53.590;10.054;2022-12-07T10:18:18;7.30;77.40
21495;DHT22;10909;53.590;10.054;2022-12-07T10:20:47;7.30;77.50
21495;DHT22;10909;53.590;10.054;2022-12-07T10:23:17;7.30;77.30
21495;DHT22;10909;53.590;10.054;2022-12-07T10:25:44;7.30;77.30
21495;DHT22;10909;53.590;10.054;2022-12-07T10:28:17;7.40;77.40
21495;DHT22;10909;53.590;10.054;2022-12-07T10:31:02;7.40;77.30
21495;DHT22;10909;53.590;10.054;2022-12-07T10:33:38;7.50;77.00
21495;DHT22;10909;53.590;10.054;2022-12-07T10:38:58;7.40;76.80
21495;DHT22;10909;53.590;10.054;2022-12-07T10:41:24;7.40;77.00
21495;DHT22;10909;53.590;10.054;2022-12-07T10:43:52;7.40;77.20
21495;DHT22;10909;53.590;10.054;2022-12-07T10:46:43;7.50;77.20
21495;DHT22;10909;53.590;10.054;2022-12-07T10:52:18;7.50;76.80
21495;DHT22;10909;53.590;10.054;2022-12-07T10:57:43;7.50;76.30
21495;DHT22;10909;53.590;10.054;2022-12-07T11:00:25;7.50;76.20
21495;DHT22;10909;53.590;10.054;2022-12-07T11:08:51;7.60;76.40
21495;DHT22;10909;53.590;10.054;2022-12-07T11:14:25;7.60;76.40
21495;DHT22;10909;53.590;10.054;2022-12-07T11:17:10;7.60;76.40
21495;DHT22;10909;53.590;10.054;2022-12-07T11:30:24;7.60;75.70
21495;DHT22;10909;53.590;10.054;2022-12-07T11:38:07;7.70;75.60
21495;DHT22;10909;53.590;10.054;2022-12-07T11:40:36;7.70;75.50
21495;DHT22;10909;53.590;10.054;2022-12-07T11:43:27;7.70;75.70
21495;DHT22;10909;53.590;10.054;2022-12-07T11:46:07;7.70;74.80
21495;DHT22;10909;53.590;10.054;2022-12-07T11:49:03;7.80;75.50
21495;DHT22;10909;53.590;10.054;2022-12-07T11:51:36;7.80;75.10
21495;DHT22;10909;53.590;10.054;2022-12-07T11:54:26;7.80;75.10
21495;DHT22;10909;53.590;10.054;2022-12-07T11:56:54;7.80;75.30
21495;DHT22;10909;53.590;10.054;2022-12-07T11:59:33;7.90;75.20
21495;DHT22;10909;53.590;10.054;2022-12-07T12:02:44;7.90;75.10
21495;DHT22;10909;53.590;10.054;2022-12-07T12:05:22;7.90;75.30
21495;DHT22;10909;53.590;10.054;2022-12-07T12:08:16;7.90;74.80
21495;DHT22;10909;53.590;10.054;2022-12-07T12:17:22;8.00;74.10
21495;DHT22;10909;53.590;10.054;2022-12-07T12:22:44;8.00;73.50
21495;DHT22;10909;53.590;10.054;2022-12-07T12:25:23;8.00;73.70
21495;DHT22;10909;53.590;10.054;2022-12-07T12:27:51;8.00;72.70
21495;DHT22;10909;53.590;10.054;2022-12-07T12:30:35;8.00;73.20
21495;DHT22;10909;53.590;10.054;2022-12-07T12:40:54;8.10;73.10
21495;DHT22;10909;53.590;10.054;2022-12-07T12:43:43;8.10;73.80
21495;DHT22;10909;53.590;10.054;2022-12-07T12:54:31;8.20;70.60
21495;DHT22;10909;53.590;10.054;2022-12-07T12:57:08;8.20;71.00
21495;DHT22;10909;53.590;10.054;2022-12-07T13:02:29;8.20;69.80
21495;DHT22;10909;53.590;10.054;2022-12-07T13:05:01;8.20;70.80
21495;DHT22;10909;53.590;10.054;2022-12-07T13:36:58;9.10;68.50
21495;DHT22;10909;53.590;10.054;2022-12-07T13:39:26;9.10;69.30
21495;DHT22;10909;53.590;10.054;2022-12-07T13:44:20;9.10;69.50
21495;DHT22;10909;53.590;10.054;2022-12-07T13:49:30;9.20;69.10
21495;DHT22;10909;53.590;10.054;2022-12-07T13:52:17;9.20;68.80
21495;DHT22;10909;53.590;10.054;2022-12-07T13:54:54;9.10;67.60
21495;DHT22;10909;53.590;10.054;2022-12-07T13:57:21;9.20;68.20
21495;DHT22;10909;53.590;10.054;2022-12-07T13:59:47;9.10;68.60
21495;DHT22;10909;53.590;10.054;2022-12-07T14:02:29;9.10;68.40
21495;DHT22;10909;53.590;10.054;2022-12-07T14:05:22;9.10;68.20
21495;DHT22;10909;53.590;10.054;2022-12-07T14:07:57;9.10;67.70
21495;DHT22;10909;53.590;10.054;2022-12-07T14:10:38;9.00;68.20
21495;DHT22;10909;53.590;10.054;2022-12-07T14:13:28;9.00;68.10
21495;DHT22;10909;53.590;10.054;2022-12-07T14:15:56;8.90;67.60
21495;DHT22;10909;53.590;10.054;2022-12-07T14:18:39;8.90;68.30
21495;DHT22;10909;53.590;10.054;2022-12-07T14:21:17;8.90;67.70
21495;DHT22;10909;53.590;10.054;2022-12-07T14:26:34;8.80;67.20
21495;DHT22;10909;53.590;10.054;2022-12-07T14:29:29;8.80;67.50
21495;DHT22;10909;53.590;10.054;2022-12-07T14:31:57;8.70;66.40
21495;DHT22;10909;53.590;10.054;2022-12-07T14:34:24;8.70;67.20
21495;DHT22;10909;53.590;10.054;2022-12-07T14:36:50;8.70;66.90
21495;DHT22;10909;53.590;10.054;2022-12-07T14:39:16;8.60;66.30
21495;DHT22;10909;53.590;10.054;2022-12-07T14:41:42;8.60;66.20
21495;DHT22;10909;53.590;10.054;2022-12-07T14:44:18;8.50;66.20
21495;DHT22;10909;53.590;10.054;2022-12-07T14:46:44;8.50;65.90
21495;DHT22;10909;53.590;10.054;2022-12-07T14:49:10;8.40;65.00
21495;DHT22;10909;53.590;10.054;2022-12-07T14:51:37;8.30;65.40
21495;DHT22;10909;53.590;10.054;2022-12-07T14:54:05;8.30;66.10
21495;DHT22;10909;53.590;10.054;2022-12-07T14:56:32;8.20;66.10
21495;DHT22;10909;53.590;10.054;2022-12-07T14:58:58;8.20;66.30
21495;DHT22;10909;53.590;10.054;2022-12-07T15:01:23;8.10;66.30
21495;DHT22;10909;53.590;10.054;2022-12-07T15:03:49;8.10;66.20
21495;DHT22;10909;53.590;10.054;2022-12-07T15:06:17;8.10;66.20
21495;DHT22;10909;53.590;10.054;2022-12-07T15:08:44;8.00;66.00
21495;DHT22;10909;53.590;10.054;2022-12-07T15:11:17;8.00;66.10
21495;DHT22;10909;53.590;10.054;2022-12-07T15:13:43;8.00;66.10
21495;DHT22;10909;53.590;10.054;2022-12-07T15:16:27;8.00;65.70
21495;DHT22;10909;53.590;10.054;2022-12-07T15:18:53;7.90;66.10
21495;DHT22;10909;53.590;10.054;2022-12-07T15:21:19;7.90;66.40
21495;DHT22;10909;53.590;10.054;2022-12-07T15:23:46;7.90;66.20
21495;DHT22;10909;53.590;10.054;2022-12-07T15:26:13;7.90;66.20
21495;DHT22;10909;53.590;10.054;2022-12-07T15:28:39;7.90;65.80
21495;DHT22;10909;53.590;10.054;2022-12-07T15:31:11;7.80;65.40
21495;DHT22;10909;53.590;10.054;2022-12-07T15:33:38;7.80;65.50
21495;DHT22;10909;53.590;10.054;2022-12-07T15:36:04;7.70;65.70
21495;DHT22;10909;53.590;10.054;2022-12-07T15:38:30;7.70;65.50
21495;DHT22;10909;53.590;10.054;2022-12-07T15:40:56;7.60;66.10
21495;DHT22;10909;53.590;10.054;2022-12-07T15:43:22;7.60;65.80
21495;DHT22;10909;53.590;10.054;2022-12-07T15:46:07;7.50;65.20
21495;DHT22;10909;53.590;10.054;2022-12-07T15:48:33;7.50;65.20
21495;DHT22;10909;53.590;10.054;2022-12-07T15:51:08;7.40;64.90
21495;DHT22;10909;53.590;10.054;2022-12-07T15:53:35;7.40;65.20
21495;DHT22;10909;53.590;10.054;2022-12-07T15:56:05;7.30;65.30
21495;DHT22;10909;53.590;10.054;2022-12-07T15:58:31;7.30;64.80
21495;DHT22;10909;53.590;10.054;2022-12-07T16:00:57;7.20;65.00
21495;DHT22;10909;53.590;10.054;2022-12-07T16:03:23;7.20;65.10
21495;DHT22;10909;53.590;10.054;2022-12-07T16:05:50;7.20;65.30
21495;DHT22;10909;53.590;10.054;2022-12-07T16:08:16;7.10;65.60
21495;DHT22;10909;53.590;10.054;2022-12-07T16:10:41;7.10;65.70
21495;DHT22;10909;53.590;10.054;2022-12-07T16:13:09;7.10;65.50
21495;DHT22;10909;53.590;10.054;2022-12-07T16:15:42;7.00;65.30
21495;DHT22;10909;53.590;10.054;2022-12-07T16:18:08;7.00;64.90
21495;DHT22;10909;53.590;10.054;2022-12-07T16:20:34;7.00;65.10
21495;DHT22;10909;53.590;10.054;2022-12-07T16:23:02;7.00;65.10
21495;DHT22;10909;53.590;10.054;2022-12-07T16:25:27;7.00;65.40
21495;DHT22;10909;53.590;10.054;2022-12-07T16:27:53;6.90;65.40
21495;DHT22;10909;53.590;10.054;2022-12-07T16:30:19;6.90;65.50
21495;DHT22;10909;53.590;10.054;2022-12-07T16:32:45;6.90;65.30
21495;DHT22;10909;53.590;10.054;2022-12-07T16:35:11;6.90;65.30
21495;DHT22;10909;53.590;10.054;2022-12-07T16:37:38;7.00;65.50
21495;DHT22;10909;53.590;10.054;2022-12-07T16:40:04;6.90;65.50
21495;DHT22;10909;53.590;10.054;2022-12-07T16:42:34;6.90;65.00
21495;DHT22;10909;53.590;10.054;2022-12-07T16:45:00;6.90;64.90
21495;DHT22;10909;53.590;10.054;2022-12-07T16:47:27;6.90;64.90
21495;DHT22;10909;53.590;10.054;2022-12-07T16:49:52;6.80;65.10
21495;DHT22;10909;53.590;10.054;2022-12-07T16:52:19;6.80;65.20
21495;DHT22;10909;53.590;10.054;2022-12-07T16:54:46;6.80;65.00
21495;DHT22;10909;53.590;10.054;2022-12-07T16:57:12;6.80;65.10
21495;DHT22;10909;53.590;10.054;2022-12-07T16:59:37;6.70;65.10
21495;DHT22;10909;53.590;10.054;2022-12-07T17:02:03;6.70;65.30
21495;DHT22;10909;53.590;10.054;2022-12-07T17:04:29;6.70;65.40
21495;DHT22;10909;53.590;10.054;2022-12-07T17:06:55;6.70;65.40
21495;DHT22;10909;53.590;10.054;2022-12-07T17:09:21;6.70;65.50
21495;DHT22;10909;53.590;10.054;2022-12-07T17:11:46;6.60;65.50
21495;DHT22;10909;53.590;10.054;2022-12-07T17:14:12;6.60;65.50
21495;DHT22;10909;53.590;10.054;2022-12-07T17:16:56;6.60;65.50
21495;DHT22;10909;53.590;10.054;2022-12-07T17:19:22;6.60;65.70
21495;DHT22;10909;53.590;10.054;2022-12-07T17:21:48;6.60;65.80
21495;DHT22;10909;53.590;10.054;2022-12-07T17:24:15;6.60;65.80
21495;DHT22;10909;53.590;10.054;2022-12-07T17:26:43;6.60;66.00
21495;DHT22;10909;53.590;10.054;2022-12-07T17:29:11;6.60;66.00
21495;DHT22;10909;53.590;10.054;2022-12-07T17:31:38;6.60;66.00
21495;DHT22;10909;53.590;10.054;2022-12-07T17:34:04;6.50;66.10
21495;DHT22;10909;53.590;10.054;2022-12-07T17:36:31;6.50;66.10
21495;DHT22;10909;53.590;10.054;2022-12-07T17:38:57;6.50;66.10
21495;DHT22;10909;53.590;10.054;2022-12-07T17:41:25;6.50;66.10
21495;DHT22;10909;53.590;10.054;2022-12-07T17:44:17;6.50;66.10
21495;DHT22;10909;53.590;10.054;2022-12-07T17:46:45;6.50;65.90
21495;DHT22;10909;53.590;10.054;2022-12-07T17:49:11;6.50;65.80
21495;DHT22;10909;53.590;10.054;2022-12-07T17:51:37;6.50;65.90
21495;DHT22;10909;53.590;10.054;2022-12-07T17:54:21;6.50;65.80
21495;DHT22;10909;53.590;10.054;2022-12-07T17:56:47;6.40;66.60
21495;DHT22;10909;53.590;10.054;2022-12-07T17:59:13;6.40;65.60
21495;DHT22;10909;53.590;10.054;2022-12-07T18:01:39;6.40;65.70
21495;DHT22;10909;53.590;10.054;2022-12-07T18:04:05;6.30;65.70